createdAt,value
2019-02-23T00:03:56.494Z,25.43
2019-02-23T00:08:01.620Z,24.90
2019-02-23T00:12:08.414Z,24.57
2019-02-23T00:16:13.535Z,24.67
2019-02-23T00:20:18.748Z,24.93
2019-02-23T00:24:43.161Z,24.97
2019-02-23T00:28:48.277Z,24.43
2019-02-23T00:32:55.421Z,21.93
2019-02-23T00:37:19.556Z,22.30
2019-02-23T00:41:24.624Z,24.87
2019-02-23T00:45:29.848Z,25.10
2019-02-23T00:49:36.634Z,26.20
2019-02-23T00:53:43.523Z,22.63
2019-02-23T00:57:48.650Z,24.27
2019-02-23T01:02:12.844Z,22.30
2019-02-23T01:06:18.008Z,24.17
2019-02-23T01:10:23.213Z,26.37
2019-02-23T01:14:28.363Z,26.10
2019-02-23T01:18:33.748Z,25.17
2019-02-23T01:22:38.928Z,24.50
2019-02-23T01:26:46.173Z,24.60
2019-02-23T01:30:51.357Z,26.00
2019-02-23T01:34:56.678Z,21.80
2019-02-23T01:39:13.324Z,25.17
2019-02-23T01:43:18.517Z,24.90
2019-02-23T01:47:23.743Z,26.17
2019-02-23T01:51:47.815Z,24.43
2019-02-23T01:55:52.991Z,25.20
2019-02-23T01:59:59.761Z,24.93
2019-02-23T02:04:16.913Z,24.70
2019-02-23T02:08:22.047Z,24.73
2019-02-23T02:16:42.890Z,22.70
2019-02-23T02:20:48.021Z,22.63
2019-02-23T02:25:13.873Z,23.77
2019-02-23T02:38:24.524Z,20.03
2019-02-23T02:42:29.577Z,20.83
2019-02-23T02:46:34.723Z,21.47
2019-02-23T02:50:39.862Z,21.17
2019-02-23T02:54:44.954Z,20.77
2019-02-23T02:58:50.502Z,21.27
2019-02-23T03:02:55.614Z,19.67
2019-02-23T03:07:00.754Z,21.27
2019-02-23T03:11:05.939Z,21.90
2019-02-23T03:15:11.092Z,20.80
2019-02-23T03:23:32.818Z,20.60
2019-02-23T03:27:38.020Z,19.30
2019-02-23T03:31:42.992Z,18.93
2019-02-23T03:35:48.090Z,18.50
2019-02-23T03:40:12.204Z,18.23
2019-02-23T03:44:17.265Z,17.23
2019-02-23T03:48:22.475Z,17.30
2019-02-23T03:52:27.587Z,15.50
2019-02-23T04:01:09.676Z,16.87
2019-02-23T04:05:33.856Z,17.70
2019-02-23T04:09:39.031Z,16.87
2019-02-23T04:13:44.280Z,17.63
2019-02-23T04:17:49.414Z,16.33
2019-02-23T04:21:54.536Z,17.90
2019-02-23T04:25:59.677Z,18.70
2019-02-23T04:30:16.631Z,18.83
2019-02-23T04:34:21.777Z,17.67
2019-02-23T04:42:56.716Z,18.43
2019-02-23T04:47:21.563Z,19.77
2019-02-23T04:51:26.537Z,18.90
2019-02-23T04:55:31.533Z,18.87
2019-02-23T04:59:36.720Z,20.57
2019-02-23T05:08:11.540Z,19.77
2019-02-23T05:12:23.913Z,20.63
2019-02-23T05:16:29.134Z,20.47
2019-02-23T05:20:34.329Z,22.07
2019-02-23T05:24:39.410Z,22.43
2019-02-23T05:28:44.511Z,21.70
2019-02-23T05:32:51.259Z,21.07
2019-02-23T05:36:56.407Z,21.27
2019-02-23T05:41:01.580Z,20.53
2019-02-23T05:49:23.792Z,22.03
2019-02-23T05:53:28.896Z,23.93
2019-02-23T05:57:34.060Z,23.63
2019-02-23T06:01:39.255Z,23.20
2019-02-23T06:05:44.344Z,23.80
2019-02-23T06:09:49.749Z,23.50
2019-02-23T06:14:13.870Z,22.90
2019-02-23T06:18:20.645Z,23.60
2019-02-23T06:22:25.703Z,23.20
2019-02-23T06:26:42.426Z,23.90
2019-02-23T06:30:47.725Z,22.80
2019-02-23T06:34:53.137Z,23.67
2019-02-23T06:38:58.285Z,24.67
2019-02-23T06:43:03.389Z,24.93
2019-02-23T06:47:08.750Z,26.13
2019-02-23T06:51:13.811Z,25.70
2019-02-23T06:55:18.888Z,26.00
2019-02-23T06:59:23.956Z,25.67
2019-02-23T07:03:29.402Z,25.37
2019-02-23T07:07:55.224Z,26.53
2019-02-23T07:12:00.429Z,26.97
2019-02-23T07:16:05.508Z,27.13
2019-02-23T07:20:22.494Z,26.20
2019-02-23T07:28:44.610Z,24.80
2019-02-23T07:32:50.448Z,25.97
2019-02-23T07:36:55.574Z,23.70
2019-02-23T07:41:00.720Z,40.33
2019-02-23T07:45:45.265Z,22.60
2019-02-23T07:49:50.345Z,24.15
2019-02-23T07:53:55.458Z,23.10
2019-02-23T07:58:00.618Z,24.43
2019-02-23T08:02:07.395Z,22.50
2019-02-23T08:06:12.531Z,23.17
2019-02-23T08:10:17.775Z,23.07
2019-02-23T08:14:22.922Z,24.50
2019-02-23T08:18:28.094Z,23.53
2019-02-23T08:22:37.322Z,22.60
2019-02-23T08:26:49.517Z,22.53
2019-02-23T08:30:54.841Z,21.33
2019-02-23T08:35:18.926Z,20.37
2019-02-23T08:39:24.100Z,19.97
2019-02-23T08:43:29.222Z,20.00
2019-02-23T08:47:34.302Z,21.60
2019-02-23T08:55:56.358Z,19.47
2019-02-23T09:00:01.473Z,17.03
2019-02-23T09:04:27.224Z,19.43
2019-02-23T09:08:32.329Z,15.07
2019-02-23T09:12:56.303Z,15.47
2019-02-23T09:17:01.446Z,14.50
2019-02-23T09:21:07.022Z,13.30
2019-02-23T09:29:49.485Z,13.43
2019-02-23T09:33:54.638Z,13.30
2019-02-23T09:37:59.782Z,13.20
2019-02-23T09:46:21.156Z,13.13
2019-02-23T09:50:27.886Z,15.03
2019-02-23T09:54:33.063Z,15.07
2019-02-23T09:58:57.275Z,14.53
2019-02-23T10:03:02.456Z,14.40
2019-02-23T10:07:07.626Z,14.43
2019-02-23T10:11:12.739Z,16.23
2019-02-23T10:15:17.871Z,14.77
2019-02-23T10:19:22.953Z,15.33
2019-02-23T10:23:28.132Z,16.37
2019-02-23T10:27:33.242Z,14.23
2019-02-23T10:31:38.618Z,12.83
2019-02-23T10:35:43.711Z,14.00
2019-02-23T10:39:48.899Z,13.67
2019-02-23T10:43:54.039Z,13.60
2019-02-23T10:47:59.202Z,13.47
2019-02-23T10:52:04.306Z,12.57
2019-02-23T10:56:10.993Z,13.87
2019-02-23T11:00:28.057Z,14.03
2019-02-23T11:04:33.194Z,12.80
2019-02-23T11:08:38.338Z,13.20
2019-02-23T11:12:43.472Z,14.03
2019-02-23T11:16:48.679Z,13.73
2019-02-23T11:20:53.833Z,14.07
2019-02-23T11:24:59.423Z,14.23
2019-02-23T11:29:10.913Z,14.03
2019-02-23T11:33:16.279Z,12.47
2019-02-23T11:38:49.342Z,13.47
2019-02-23T11:42:10.603Z,13.17
2019-02-23T11:46:29.607Z,13.27
2019-02-23T11:55:38.665Z,14.00
2019-02-23T12:00:03.099Z,14.07
2019-02-23T12:04:15.371Z,11.37
2019-02-23T12:08:45.439Z,13.77
2019-02-23T12:13:10.219Z,12.50
2019-02-23T12:17:29.303Z,11.63
2019-02-23T12:21:41.915Z,13.13
2019-02-23T12:25:52.419Z,12.43
2019-02-23T12:29:58.059Z,13.50
2019-02-23T12:34:03.610Z,13.57
2019-02-23T12:38:08.938Z,12.80
2019-02-23T12:42:14.642Z,19.00
2019-02-23T12:46:20.771Z,13.50
2019-02-23T12:50:26.645Z,13.80
2019-02-23T12:54:32.147Z,13.57
2019-02-23T12:58:37.853Z,12.80
2019-02-23T13:02:51.734Z,13.57
2019-02-23T13:06:57.742Z,14.00
2019-02-23T13:11:03.459Z,12.33
2019-02-23T13:15:29.929Z,12.13
2019-02-23T13:20:13.491Z,12.90
2019-02-23T13:24:44.534Z,12.07
2019-02-23T13:29:28.097Z,18.97
2019-02-23T13:33:55.645Z,13.63
2019-02-23T13:53:39.550Z,15.87
2019-02-23T13:58:23.135Z,12.17
2019-02-23T14:03:08.338Z,10.60
2019-02-23T14:07:53.434Z,11.27
2019-02-23T14:12:13.476Z,11.57
2019-02-23T14:16:56.962Z,11.73
2019-02-23T14:26:14.788Z,10.60
2019-02-23T14:31:01.568Z,9.63
2019-02-23T14:35:46.886Z,10.27
2019-02-23T14:40:30.714Z,10.60
2019-02-23T14:45:13.972Z,16.63
2019-02-23T14:49:57.918Z,12.70
2019-02-23T14:59:55.508Z,9.47
2019-02-23T15:04:36.607Z,9.77
2019-02-23T15:08:45.592Z,9.63
2019-02-23T15:13:28.878Z,8.97
2019-02-23T15:18:19.192Z,8.90
2019-02-23T15:23:08.191Z,9.00
2019-02-23T15:27:51.471Z,8.60
2019-02-23T15:32:34.755Z,8.40
2019-02-23T15:37:37.274Z,9.53
2019-02-23T15:42:28.413Z,9.13
2019-02-23T15:47:07.891Z,9.30
2019-02-23T15:51:13.198Z,9.03
2019-02-23T15:55:26.140Z,8.40
2019-02-23T15:59:27.666Z,8.47
2019-02-23T16:03:34.126Z,8.53
2019-02-23T16:07:39.670Z,8.87
2019-02-23T16:11:45.846Z,9.40
2019-02-23T16:15:51.792Z,9.23
2019-02-23T16:19:57.910Z,9.73
2019-02-23T16:24:03.662Z,8.93
2019-02-23T16:28:12.248Z,8.73
2019-02-23T16:32:18.112Z,9.47
2019-02-23T16:36:23.666Z,8.40
2019-02-23T16:40:29.201Z,8.80
2019-02-23T16:44:36.969Z,8.80
2019-02-23T16:48:45.465Z,8.70
2019-02-23T16:52:52.374Z,9.27
2019-02-23T16:56:57.830Z,8.57
2019-02-23T17:01:04.279Z,9.50
2019-02-23T17:05:19.015Z,9.57
2019-02-23T17:09:28.361Z,9.63
2019-02-23T17:13:33.903Z,9.27
2019-02-23T17:17:39.364Z,13.40
2019-02-23T17:21:44.897Z,10.60
2019-02-23T17:26:03.401Z,11.10
2019-02-23T17:30:04.773Z,10.67
2019-02-23T17:34:10.179Z,9.30
2019-02-23T17:38:23.160Z,11.60
2019-02-23T17:42:28.714Z,10.30
2019-02-23T17:46:35.469Z,11.90
2019-02-23T17:50:41.308Z,21.33
2019-02-23T17:54:46.961Z,11.20
2019-02-23T17:58:54.948Z,11.27
2019-02-23T18:03:00.456Z,11.90
2019-02-23T18:07:07.930Z,10.03
2019-02-23T18:11:13.357Z,11.10
2019-02-23T18:15:18.729Z,11.07
2019-02-23T18:19:23.785Z,10.43
2019-02-23T18:23:28.888Z,10.80
2019-02-23T18:27:34.034Z,11.40
2019-02-23T18:31:39.258Z,10.50
2019-02-23T18:35:44.498Z,11.50
2019-02-23T18:39:49.738Z,10.73
2019-02-23T18:43:54.985Z,11.27
2019-02-23T18:48:01.459Z,10.23
2019-02-23T18:52:07.355Z,10.70
2019-02-23T18:56:14.342Z,10.50
2019-02-23T19:00:24.378Z,11.20
2019-02-23T19:04:27.208Z,11.40
2019-02-23T19:08:32.506Z,10.97
2019-02-23T19:13:17.529Z,18.63
2019-02-23T19:17:42.883Z,9.53
2019-02-23T19:21:55.996Z,10.13
2019-02-23T19:26:02.725Z,10.40
2019-02-23T19:30:43.309Z,10.43
2019-02-23T19:34:50.376Z,11.30
2019-02-23T19:38:56.902Z,11.43
2019-02-23T19:43:03.212Z,11.30
2019-02-23T19:47:13.156Z,12.17
2019-02-23T19:51:21.698Z,11.60
2019-02-23T19:55:27.574Z,11.30
2019-02-23T19:59:35.702Z,11.03
2019-02-23T20:03:41.681Z,10.30
2019-02-23T20:07:49.850Z,11.17
2019-02-23T20:12:21.103Z,10.63
2019-02-23T20:16:27.745Z,12.07
2019-02-23T20:21:00.387Z,11.05
2019-02-23T20:25:07.301Z,12.53
2019-02-23T20:34:47.961Z,11.20
2019-02-23T20:38:53.749Z,11.07
2019-02-23T20:42:59.523Z,11.97
2019-02-23T20:47:05.270Z,11.40
2019-02-23T20:52:10.264Z,10.77
2019-02-23T20:56:48.655Z,11.67
2019-02-23T21:05:43.184Z,11.77
2019-02-23T21:09:52.513Z,11.67
2019-02-23T21:14:15.328Z,11.03
2019-02-23T21:19:03.010Z,10.13
2019-02-23T21:23:21.581Z,10.17
2019-02-23T21:27:35.734Z,10.80
2019-02-23T21:31:40.936Z,13.53
2019-02-23T21:35:46.220Z,10.37
2019-02-23T21:39:51.510Z,9.53
2019-02-23T21:43:56.642Z,10.43
2019-02-23T21:48:01.781Z,10.13
2019-02-23T21:52:07.026Z,9.53
2019-02-23T21:56:12.197Z,9.40
2019-02-23T22:00:17.360Z,9.43
2019-02-23T22:04:22.698Z,8.60
2019-02-23T22:08:27.842Z,9.13
2019-02-23T22:12:33.365Z,8.30
2019-02-23T22:16:38.487Z,8.70
2019-02-23T22:20:43.636Z,8.30
2019-02-23T22:24:48.848Z,8.33
2019-02-23T22:28:54.893Z,8.93
2019-02-23T22:33:00.096Z,8.80
2019-02-23T22:37:05.229Z,9.00
2019-02-23T22:41:10.574Z,8.40
2019-02-23T22:45:16.022Z,7.83
2019-02-23T22:49:22.102Z,8.20
2019-02-23T22:53:27.704Z,8.27
2019-02-23T22:57:40.224Z,7.97
2019-02-23T23:01:40.221Z,8.53
2019-02-23T23:05:47.071Z,8.63
2019-02-23T23:09:53.238Z,8.47
2019-02-23T23:13:58.397Z,8.47
2019-02-23T23:18:03.554Z,8.53
2019-02-23T23:22:08.702Z,9.90
2019-02-23T23:26:13.778Z,8.10
2019-02-23T23:30:18.841Z,7.93
2019-02-23T23:34:23.979Z,8.40
2019-02-23T23:38:29.120Z,8.43
2019-02-23T23:42:34.297Z,8.47
2019-02-23T23:46:39.438Z,7.87
2019-02-23T23:50:44.536Z,8.20
2019-02-23T23:54:49.715Z,7.83
2019-02-23T23:58:54.858Z,7.87
